To NAV CANADA Home Page Login to a new session Search on AWWS site Feedback and Comments Disclaimer Vers la page française équivalente Tips FAQ What's new on the site To the Forecasts and Observations / NOTAM section To "File a Flight Plan" website Publications and other links Update of the User's profile FIC Telephone Numbers My Weather Data Folder Route Weather Data Regional Weather Data Local Weather Data To the Forecasts and Observations / NOTAM section
Request Generated 03/05/2015 at 22:26:51 UTC . Weather information available at that time is displayed.

METAR/TAF

MONTREAL/MONTREAL INTL (MIRABEL)/QC    

METAR CYMX 052200Z 24008KT 210V280 45SM FEW250 M11/M24 A3025 RMK CI1
SLP251=
METAR CYMX 052100Z 23009G16KT 45SM FEW250 M11/M24 A3023 RMK CI1
SLP244=
METAR CYMX 052000Z 23009G17KT 35SM FEW250 M11/M24 A3023 RMK CI2
SLP244=

TAF CYMX 051738Z 0518/0618 17006KT P6SM FEW050 SCT250
BECMG 0518/0520 26006KT
FM060000 VRB03KT P6SM SKC
BECMG 0614/0616 23010G20KT
RMK NXT FCST BY 060000Z=
Your time UTC time
Weather data provided by Environment Canada and NAV CANADA